All Spectrum Aviation - Van Nuys Airport - KVNY

HOME

Condor Squadron KVNY Webcam

Visit our Electronics Store

Condor Squadron Webcam - Van Nuys Airport - KVNY
Picture taken: Wed, 08 Apr 2020 00:31:02 -0700
YouTube Channel!    Latest Timelapse Movie    Full Size Image    Regular Size Image    

2020/04/08 06:51 KVNY 080651Z AUTO 00000KT 10SM BKN016 OVC060 10/07 A3001 RMK AO2 RAE45 SLP158 P0002 T01000072

HOME

Condor Squadron KVNY Webcam

Visit our Electronics Store